sensor_id;sensor_type;location;lat;lon;timestamp;temperature;humidity
17845;DHT22;9047;53.486;10.218;2023-11-22T00:00:45;2.00;99.90
17845;DHT22;9047;53.486;10.218;2023-11-22T00:03:12;1.90;99.90
17845;DHT22;9047;53.486;10.218;2023-11-22T00:05:39;1.90;99.90
17845;DHT22;9047;53.486;10.218;2023-11-22T00:08:07;1.90;99.90
17845;DHT22;9047;53.486;10.218;2023-11-22T00:10:34;1.90;99.90
17845;DHT22;9047;53.486;10.218;2023-11-22T00:13:01;1.80;99.90
17845;DHT22;9047;53.486;10.218;2023-11-22T00:15:28;1.80;99.90
17845;DHT22;9047;53.486;10.218;2023-11-22T00:17:54;1.80;99.90
17845;DHT22;9047;53.486;10.218;2023-11-22T00:20:23;1.80;99.90
17845;DHT22;9047;53.486;10.218;2023-11-22T00:22:50;1.70;99.90
17845;DHT22;9047;53.486;10.218;2023-11-22T00:25:18;1.70;99.90
17845;DHT22;9047;53.486;10.218;2023-11-22T00:27:45;1.60;99.90
17845;DHT22;9047;53.486;10.218;2023-11-22T00:30:13;1.50;99.90
17845;DHT22;9047;53.486;10.218;2023-11-22T00:32:40;1.50;99.90
17845;DHT22;9047;53.486;10.218;2023-11-22T00:35:07;1.40;99.90
17845;DHT22;9047;53.486;10.218;2023-11-22T00:37:34;1.40;99.90
17845;DHT22;9047;53.486;10.218;2023-11-22T00:40:01;1.40;99.90
17845;DHT22;9047;53.486;10.218;2023-11-22T00:42:37;1.30;99.90
17845;DHT22;9047;53.486;10.218;2023-11-22T00:45:06;1.30;99.90
17845;DHT22;9047;53.486;10.218;2023-11-22T00:47:33;1.20;99.90
17845;DHT22;9047;53.486;10.218;2023-11-22T00:49:59;1.20;99.90
17845;DHT22;9047;53.486;10.218;2023-11-22T00:52:26;1.20;99.90
17845;DHT22;9047;53.486;10.218;2023-11-22T00:54:53;1.20;99.90
17845;DHT22;9047;53.486;10.218;2023-11-22T00:57:20;1.20;99.90
17845;DHT22;9047;53.486;10.218;2023-11-22T00:59:48;1.10;99.90
17845;DHT22;9047;53.486;10.218;2023-11-22T01:02:15;1.10;99.90
17845;DHT22;9047;53.486;10.218;2023-11-22T01:04:45;1.20;99.90
17845;DHT22;9047;53.486;10.218;2023-11-22T01:07:13;1.10;99.90
17845;DHT22;9047;53.486;10.218;2023-11-22T01:09:40;1.00;99.90
17845;DHT22;9047;53.486;10.218;2023-11-22T01:12:07;1.00;99.90
17845;DHT22;9047;53.486;10.218;2023-11-22T01:14:35;1.00;99.90
17845;DHT22;9047;53.486;10.218;2023-11-22T01:17:03;0.90;99.90
17845;DHT22;9047;53.486;10.218;2023-11-22T01:19:29;0.90;99.90
17845;DHT22;9047;53.486;10.218;2023-11-22T01:21:57;0.90;99.90
17845;DHT22;9047;53.486;10.218;2023-11-22T01:24:24;0.90;99.90
17845;DHT22;9047;53.486;10.218;2023-11-22T01:26:51;0.90;99.90
17845;DHT22;9047;53.486;10.218;2023-11-22T01:29:21;0.80;99.90
17845;DHT22;9047;53.486;10.218;2023-11-22T01:31:49;0.80;99.90
17845;DHT22;9047;53.486;10.218;2023-11-22T01:34:17;0.80;99.90
17845;DHT22;9047;53.486;10.218;2023-11-22T01:36:44;0.80;99.90
17845;DHT22;9047;53.486;10.218;2023-11-22T01:39:11;0.80;99.90
17845;DHT22;9047;53.486;10.218;2023-11-22T01:41:40;0.80;99.90
17845;DHT22;9047;53.486;10.218;2023-11-22T01:44:07;0.80;99.90
17845;DHT22;9047;53.486;10.218;2023-11-22T01:46:34;0.90;99.90
17845;DHT22;9047;53.486;10.218;2023-11-22T01:49:01;0.90;99.90
17845;DHT22;9047;53.486;10.218;2023-11-22T01:51:30;0.90;99.90
17845;DHT22;9047;53.486;10.218;2023-11-22T01:53:57;0.90;99.90
17845;DHT22;9047;53.486;10.218;2023-11-22T01:56:26;1.00;99.90
17845;DHT22;9047;53.486;10.218;2023-11-22T01:58:53;0.90;99.90
17845;DHT22;9047;53.486;10.218;2023-11-22T02:01:21;1.00;99.90
17845;DHT22;9047;53.486;10.218;2023-11-22T02:03:47;0.90;99.90
17845;DHT22;9047;53.486;10.218;2023-11-22T02:06:15;0.90;99.90
17845;DHT22;9047;53.486;10.218;2023-11-22T02:08:44;0.80;99.90
17845;DHT22;9047;53.486;10.218;2023-11-22T02:11:11;0.80;99.90
17845;DHT22;9047;53.486;10.218;2023-11-22T02:13:37;0.70;99.90
17845;DHT22;9047;53.486;10.218;2023-11-22T02:16:05;0.70;99.90
17845;DHT22;9047;53.486;10.218;2023-11-22T02:18:32;0.70;99.90
17845;DHT22;9047;53.486;10.218;2023-11-22T02:21:02;0.70;99.90
17845;DHT22;9047;53.486;10.218;2023-11-22T02:23:31;0.70;99.90
17845;DHT22;9047;53.486;10.218;2023-11-22T02:25:58;0.70;99.90
17845;DHT22;9047;53.486;10.218;2023-11-22T02:28:26;0.60;99.90
17845;DHT22;9047;53.486;10.218;2023-11-22T02:30:52;0.50;99.90
17845;DHT22;9047;53.486;10.218;2023-11-22T02:33:20;0.50;99.90
17845;DHT22;9047;53.486;10.218;2023-11-22T02:35:47;0.50;99.90
17845;DHT22;9047;53.486;10.218;2023-11-22T02:38:13;0.50;99.90
17845;DHT22;9047;53.486;10.218;2023-11-22T02:40:42;0.50;99.90
17845;DHT22;9047;53.486;10.218;2023-11-22T02:43:09;0.50;99.90
17845;DHT22;9047;53.486;10.218;2023-11-22T02:45:37;0.50;99.90
17845;DHT22;9047;53.486;10.218;2023-11-22T02:48:04;0.40;99.90
17845;DHT22;9047;53.486;10.218;2023-11-22T02:50:35;0.40;99.90
17845;DHT22;9047;53.486;10.218;2023-11-22T02:53:02;0.30;99.90
17845;DHT22;9047;53.486;10.218;2023-11-22T02:55:29;0.30;99.90
17845;DHT22;9047;53.486;10.218;2023-11-22T02:57:58;0.30;99.90
17845;DHT22;9047;53.486;10.218;2023-11-22T03:00:25;0.30;99.90
17845;DHT22;9047;53.486;10.218;2023-11-22T03:02:51;0.30;99.90
17845;DHT22;9047;53.486;10.218;2023-11-22T03:05:19;0.30;99.90
17845;DHT22;9047;53.486;10.218;2023-11-22T03:07:46;0.30;99.90
17845;DHT22;9047;53.486;10.218;2023-11-22T03:10:13;0.30;99.90
17845;DHT22;9047;53.486;10.218;2023-11-22T03:12:43;0.30;99.90
17845;DHT22;9047;53.486;10.218;2023-11-22T03:15:11;0.30;99.90
17845;DHT22;9047;53.486;10.218;2023-11-22T03:17:38;0.40;99.90
17845;DHT22;9047;53.486;10.218;2023-11-22T03:20:06;0.40;99.90
17845;DHT22;9047;53.486;10.218;2023-11-22T03:22:34;0.40;99.90
17845;DHT22;9047;53.486;10.218;2023-11-22T03:25:02;0.40;99.90
17845;DHT22;9047;53.486;10.218;2023-11-22T03:27:29;0.40;99.90
17845;DHT22;9047;53.486;10.218;2023-11-22T03:29:56;0.40;99.90
17845;DHT22;9047;53.486;10.218;2023-11-22T03:32:24;0.40;99.90
17845;DHT22;9047;53.486;10.218;2023-11-22T03:34:51;0.40;99.90
17845;DHT22;9047;53.486;10.218;2023-11-22T03:37:18;0.40;99.90
17845;DHT22;9047;53.486;10.218;2023-11-22T03:39:45;0.40;99.90
17845;DHT22;9047;53.486;10.218;2023-11-22T03:42:14;0.30;99.90
17845;DHT22;9047;53.486;10.218;2023-11-22T03:44:41;0.40;99.90
17845;DHT22;9047;53.486;10.218;2023-11-22T03:47:09;0.30;99.90
17845;DHT22;9047;53.486;10.218;2023-11-22T03:49:38;0.30;99.90
17845;DHT22;9047;53.486;10.218;2023-11-22T03:52:05;0.20;99.90
17845;DHT22;9047;53.486;10.218;2023-11-22T03:54:33;0.20;99.90
17845;DHT22;9047;53.486;10.218;2023-11-22T03:57:00;0.20;99.90
17845;DHT22;9047;53.486;10.218;2023-11-22T03:59:27;0.20;99.90
17845;DHT22;9047;53.486;10.218;2023-11-22T04:02:02;0.20;99.90
17845;DHT22;9047;53.486;10.218;2023-11-22T04:04:29;0.20;99.90
17845;DHT22;9047;53.486;10.218;2023-11-22T04:06:59;0.20;99.90
17845;DHT22;9047;53.486;10.218;2023-11-22T04:09:26;0.20;99.90
17845;DHT22;9047;53.486;10.218;2023-11-22T04:11:55;0.20;99.90
17845;DHT22;9047;53.486;10.218;2023-11-22T04:14:21;0.10;99.90
17845;DHT22;9047;53.486;10.218;2023-11-22T04:16:48;0.10;99.90
17845;DHT22;9047;53.486;10.218;2023-11-22T04:19:15;0.20;99.90
17845;DHT22;9047;53.486;10.218;2023-11-22T04:21:42;0.20;99.90
17845;DHT22;9047;53.486;10.218;2023-11-22T04:24:11;0.10;99.90
17845;DHT22;9047;53.486;10.218;2023-11-22T04:26:38;0.10;99.90
17845;DHT22;9047;53.486;10.218;2023-11-22T04:29:05;0.00;99.90
17845;DHT22;9047;53.486;10.218;2023-11-22T04:31:31;0.00;99.90
17845;DHT22;9047;53.486;10.218;2023-11-22T04:33:58;0.00;99.90
17845;DHT22;9047;53.486;10.218;2023-11-22T04:36:25;-0.10;99.90
17845;DHT22;9047;53.486;10.218;2023-11-22T04:38:52;-0.10;99.90
17845;DHT22;9047;53.486;10.218;2023-11-22T04:41:21;-0.10;99.90
17845;DHT22;9047;53.486;10.218;2023-11-22T04:43:48;-0.10;99.90
17845;DHT22;9047;53.486;10.218;2023-11-22T04:46:15;-0.20;99.90
17845;DHT22;9047;53.486;10.218;2023-11-22T04:48:43;-0.20;99.90
17845;DHT22;9047;53.486;10.218;2023-11-22T04:51:10;-0.20;99.90
17845;DHT22;9047;53.486;10.218;2023-11-22T04:53:37;-0.30;99.90
17845;DHT22;9047;53.486;10.218;2023-11-22T04:56:05;-0.30;99.90
17845;DHT22;9047;53.486;10.218;2023-11-22T04:58:33;-0.20;99.90
17845;DHT22;9047;53.486;10.218;2023-11-22T05:01:01;-0.20;99.90
17845;DHT22;9047;53.486;10.218;2023-11-22T05:03:28;-0.20;99.90
17845;DHT22;9047;53.486;10.218;2023-11-22T05:05:55;-0.20;99.90
17845;DHT22;9047;53.486;10.218;2023-11-22T05:08:22;-0.30;99.90
17845;DHT22;9047;53.486;10.218;2023-11-22T05:10:50;-0.30;99.90
17845;DHT22;9047;53.486;10.218;2023-11-22T05:13:17;-0.30;99.90
17845;DHT22;9047;53.486;10.218;2023-11-22T05:15:45;-0.30;99.90
17845;DHT22;9047;53.486;10.218;2023-11-22T05:18:15;-0.30;99.90
17845;DHT22;9047;53.486;10.218;2023-11-22T05:20:42;-0.30;99.90
17845;DHT22;9047;53.486;10.218;2023-11-22T05:23:09;-0.30;99.90
17845;DHT22;9047;53.486;10.218;2023-11-22T05:25:36;-0.40;99.90
17845;DHT22;9047;53.486;10.218;2023-11-22T05:28:03;-0.40;99.90
17845;DHT22;9047;53.486;10.218;2023-11-22T05:30:30;-0.50;99.90
17845;DHT22;9047;53.486;10.218;2023-11-22T05:32:58;-0.50;99.90
17845;DHT22;9047;53.486;10.218;2023-11-22T05:35:25;-0.50;99.90
17845;DHT22;9047;53.486;10.218;2023-11-22T05:37:52;-0.50;99.90
17845;DHT22;9047;53.486;10.218;2023-11-22T05:40:18;-0.50;99.90
17845;DHT22;9047;53.486;10.218;2023-11-22T05:42:45;-0.40;99.90
17845;DHT22;9047;53.486;10.218;2023-11-22T05:45:12;-0.40;99.90
17845;DHT22;9047;53.486;10.218;2023-11-22T05:47:41;-0.40;99.90
17845;DHT22;9047;53.486;10.218;2023-11-22T05:50:10;-0.40;99.90
17845;DHT22;9047;53.486;10.218;2023-11-22T05:52:37;-0.50;99.90
17845;DHT22;9047;53.486;10.218;2023-11-22T05:55:04;-0.50;99.90
17845;DHT22;9047;53.486;10.218;2023-11-22T05:57:31;-0.50;99.90
17845;DHT22;9047;53.486;10.218;2023-11-22T05:59:57;-0.60;99.90
17845;DHT22;9047;53.486;10.218;2023-11-22T06:02:26;-0.60;99.90
17845;DHT22;9047;53.486;10.218;2023-11-22T06:04:53;-0.60;99.90
17845;DHT22;9047;53.486;10.218;2023-11-22T06:07:21;-0.60;99.90
17845;DHT22;9047;53.486;10.218;2023-11-22T06:09:48;-0.60;99.90
17845;DHT22;9047;53.486;10.218;2023-11-22T06:12:14;-0.60;99.90
17845;DHT22;9047;53.486;10.218;2023-11-22T06:14:41;-0.60;99.90
17845;DHT22;9047;53.486;10.218;2023-11-22T06:17:09;-0.60;99.90
17845;DHT22;9047;53.486;10.218;2023-11-22T06:19:36;-0.60;99.90
17845;DHT22;9047;53.486;10.218;2023-11-22T06:22:03;-0.60;99.90
17845;DHT22;9047;53.486;10.218;2023-11-22T06:24:31;-0.60;99.90
17845;DHT22;9047;53.486;10.218;2023-11-22T06:27:01;-0.60;99.90
17845;DHT22;9047;53.486;10.218;2023-11-22T06:29:28;-0.60;99.90
17845;DHT22;9047;53.486;10.218;2023-11-22T06:31:58;-0.60;99.90
17845;DHT22;9047;53.486;10.218;2023-11-22T06:34:27;-0.60;99.90
17845;DHT22;9047;53.486;10.218;2023-11-22T06:36:54;-0.60;99.90
17845;DHT22;9047;53.486;10.218;2023-11-22T06:39:20;-0.60;99.90
17845;DHT22;9047;53.486;10.218;2023-11-22T06:41:49;-0.60;99.90
17845;DHT22;9047;53.486;10.218;2023-11-22T06:44:16;-0.50;99.90
17845;DHT22;9047;53.486;10.218;2023-11-22T06:46:43;-0.50;99.90
17845;DHT22;9047;53.486;10.218;2023-11-22T06:49:10;-0.40;99.90
17845;DHT22;9047;53.486;10.218;2023-11-22T06:51:37;-0.40;99.90
17845;DHT22;9047;53.486;10.218;2023-11-22T06:54:04;-0.40;99.90
17845;DHT22;9047;53.486;10.218;2023-11-22T06:56:33;-0.30;99.90
17845;DHT22;9047;53.486;10.218;2023-11-22T06:59:01;-0.20;99.90
17845;DHT22;9047;53.486;10.218;2023-11-22T07:01:28;-0.20;99.90
17845;DHT22;9047;53.486;10.218;2023-11-22T07:04:03;-0.10;99.90
17845;DHT22;9047;53.486;10.218;2023-11-22T07:06:32;-0.10;99.90
17845;DHT22;9047;53.486;10.218;2023-11-22T07:08:59;0.00;99.90
17845;DHT22;9047;53.486;10.218;2023-11-22T07:11:26;0.00;99.90
17845;DHT22;9047;53.486;10.218;2023-11-22T07:13:56;0.10;99.90
17845;DHT22;9047;53.486;10.218;2023-11-22T07:16:24;0.10;99.90
17845;DHT22;9047;53.486;10.218;2023-11-22T07:18:51;0.20;99.90
17845;DHT22;9047;53.486;10.218;2023-11-22T07:21:18;0.20;99.90
17845;DHT22;9047;53.486;10.218;2023-11-22T07:23:53;0.30;99.90
17845;DHT22;9047;53.486;10.218;2023-11-22T07:26:21;0.30;99.90
17845;DHT22;9047;53.486;10.218;2023-11-22T07:28:48;0.40;99.90
17845;DHT22;9047;53.486;10.218;2023-11-22T07:31:15;0.40;99.90
17845;DHT22;9047;53.486;10.218;2023-11-22T07:33:46;0.40;99.90
17845;DHT22;9047;53.486;10.218;2023-11-22T07:36:13;0.50;99.90
17845;DHT22;9047;53.486;10.218;2023-11-22T07:38:42;0.50;99.90
17845;DHT22;9047;53.486;10.218;2023-11-22T07:41:10;0.60;99.90
17845;DHT22;9047;53.486;10.218;2023-11-22T07:43:37;0.60;99.90
17845;DHT22;9047;53.486;10.218;2023-11-22T07:46:05;0.70;99.90
17845;DHT22;9047;53.486;10.218;2023-11-22T07:48:37;0.80;99.90
17845;DHT22;9047;53.486;10.218;2023-11-22T07:51:08;0.80;99.90
17845;DHT22;9047;53.486;10.218;2023-11-22T07:53:35;0.90;99.90
17845;DHT22;9047;53.486;10.218;2023-11-22T07:56:02;0.90;99.90
17845;DHT22;9047;53.486;10.218;2023-11-22T07:58:30;1.00;99.90
17845;DHT22;9047;53.486;10.218;2023-11-22T08:00:58;1.00;99.90
17845;DHT22;9047;53.486;10.218;2023-11-22T08:03:29;1.10;99.90
17845;DHT22;9047;53.486;10.218;2023-11-22T08:05:59;1.10;99.90
17845;DHT22;9047;53.486;10.218;2023-11-22T08:08:31;1.20;99.90
17845;DHT22;9047;53.486;10.218;2023-11-22T08:11:00;1.20;99.90
17845;DHT22;9047;53.486;10.218;2023-11-22T08:13:28;1.30;99.90
17845;DHT22;9047;53.486;10.218;2023-11-22T08:15:56;1.40;99.90
17845;DHT22;9047;53.486;10.218;2023-11-22T08:18:24;1.40;99.90
17845;DHT22;9047;53.486;10.218;2023-11-22T08:20:52;1.50;99.90
17845;DHT22;9047;53.486;10.218;2023-11-22T08:23:19;1.50;99.90
17845;DHT22;9047;53.486;10.218;2023-11-22T08:25:49;1.60;99.90
17845;DHT22;9047;53.486;10.218;2023-11-22T08:28:16;1.60;99.90
17845;DHT22;9047;53.486;10.218;2023-11-22T08:30:44;1.70;99.90
17845;DHT22;9047;53.486;10.218;2023-11-22T08:33:11;1.70;99.90
17845;DHT22;9047;53.486;10.218;2023-11-22T08:35:38;1.80;99.90
17845;DHT22;9047;53.486;10.218;2023-11-22T08:38:16;1.80;99.90
17845;DHT22;9047;53.486;10.218;2023-11-22T08:40:44;1.90;99.90
17845;DHT22;9047;53.486;10.218;2023-11-22T08:43:13;1.90;99.90
17845;DHT22;9047;53.486;10.218;2023-11-22T08:45:43;2.00;99.90
17845;DHT22;9047;53.486;10.218;2023-11-22T08:48:11;2.00;99.90
17845;DHT22;9047;53.486;10.218;2023-11-22T08:50:40;2.00;99.90
17845;DHT22;9047;53.486;10.218;2023-11-22T08:53:07;2.10;99.90
17845;DHT22;9047;53.486;10.218;2023-11-22T08:55:35;2.10;99.90
17845;DHT22;9047;53.486;10.218;2023-11-22T08:58:03;2.20;99.90
17845;DHT22;9047;53.486;10.218;2023-11-22T09:00:32;2.20;99.90
17845;DHT22;9047;53.486;10.218;2023-11-22T09:03:01;2.20;99.90
17845;DHT22;9047;53.486;10.218;2023-11-22T09:05:29;2.20;99.90
17845;DHT22;9047;53.486;10.218;2023-11-22T09:07:59;2.20;99.90
17845;DHT22;9047;53.486;10.218;2023-11-22T09:10:27;2.30;99.90
17845;DHT22;9047;53.486;10.218;2023-11-22T09:12:54;2.30;99.90
17845;DHT22;9047;53.486;10.218;2023-11-22T09:15:21;2.40;99.90
17845;DHT22;9047;53.486;10.218;2023-11-22T09:17:55;2.40;99.90
17845;DHT22;9047;53.486;10.218;2023-11-22T09:20:23;2.50;99.90
17845;DHT22;9047;53.486;10.218;2023-11-22T09:22:51;2.50;99.90
17845;DHT22;9047;53.486;10.218;2023-11-22T09:25:20;2.60;99.90
17845;DHT22;9047;53.486;10.218;2023-11-22T09:27:49;2.60;99.90
17845;DHT22;9047;53.486;10.218;2023-11-22T09:30:19;2.70;99.90
17845;DHT22;9047;53.486;10.218;2023-11-22T09:33:03;2.70;99.90
17845;DHT22;9047;53.486;10.218;2023-11-22T09:35:30;2.70;99.90
17845;DHT22;9047;53.486;10.218;2023-11-22T09:37:59;2.70;99.90
17845;DHT22;9047;53.486;10.218;2023-11-22T09:40:27;2.80;99.90
17845;DHT22;9047;53.486;10.218;2023-11-22T09:42:57;2.80;99.90
17845;DHT22;9047;53.486;10.218;2023-11-22T09:45:26;2.90;99.90
17845;DHT22;9047;53.486;10.218;2023-11-22T09:47:54;2.90;99.90
17845;DHT22;9047;53.486;10.218;2023-11-22T09:50:26;2.90;99.90
17845;DHT22;9047;53.486;10.218;2023-11-22T09:53:00;3.00;99.90
17845;DHT22;9047;53.486;10.218;2023-11-22T09:55:30;3.10;99.90
17845;DHT22;9047;53.486;10.218;2023-11-22T09:57:58;3.10;99.90
17845;DHT22;9047;53.486;10.218;2023-11-22T10:00:28;3.20;99.90
17845;DHT22;9047;53.486;10.218;2023-11-22T10:02:56;3.20;99.90
17845;DHT22;9047;53.486;10.218;2023-11-22T10:05:24;3.30;99.90
17845;DHT22;9047;53.486;10.218;2023-11-22T10:07:55;3.30;99.90
17845;DHT22;9047;53.486;10.218;2023-11-22T10:10:22;3.40;99.90
17845;DHT22;9047;53.486;10.218;2023-11-22T10:12:54;3.40;99.90
17845;DHT22;9047;53.486;10.218;2023-11-22T10:15:27;3.50;99.90
17845;DHT22;9047;53.486;10.218;2023-11-22T10:17:55;3.50;99.90
17845;DHT22;9047;53.486;10.218;2023-11-22T10:20:24;3.50;99.90
17845;DHT22;9047;53.486;10.218;2023-11-22T10:22:53;3.50;99.90
17845;DHT22;9047;53.486;10.218;2023-11-22T10:25:20;3.60;99.90
17845;DHT22;9047;53.486;10.218;2023-11-22T10:27:48;3.60;99.90
17845;DHT22;9047;53.486;10.218;2023-11-22T10:30:17;3.60;99.90
17845;DHT22;9047;53.486;10.218;2023-11-22T10:32:44;3.70;99.90
17845;DHT22;9047;53.486;10.218;2023-11-22T10:35:12;3.70;99.90
17845;DHT22;9047;53.486;10.218;2023-11-22T10:37:44;3.80;99.90
17845;DHT22;9047;53.486;10.218;2023-11-22T10:40:12;3.80;99.90
17845;DHT22;9047;53.486;10.218;2023-11-22T10:42:41;3.90;99.90
17845;DHT22;9047;53.486;10.218;2023-11-22T10:45:10;4.00;99.90
17845;DHT22;9047;53.486;10.218;2023-11-22T10:47:39;3.90;99.90
17845;DHT22;9047;53.486;10.218;2023-11-22T10:50:09;4.00;99.90
17845;DHT22;9047;53.486;10.218;2023-11-22T10:52:40;4.00;99.90
17845;DHT22;9047;53.486;10.218;2023-11-22T10:55:12;4.00;99.90
17845;DHT22;9047;53.486;10.218;2023-11-22T10:57:45;4.00;99.90
17845;DHT22;9047;53.486;10.218;2023-11-22T11:00:15;4.10;99.90
17845;DHT22;9047;53.486;10.218;2023-11-22T11:02:45;4.10;99.90
17845;DHT22;9047;53.486;10.218;2023-11-22T11:05:16;4.10;99.90
17845;DHT22;9047;53.486;10.218;2023-11-22T11:07:49;4.20;99.90
17845;DHT22;9047;53.486;10.218;2023-11-22T11:10:20;4.20;99.90
17845;DHT22;9047;53.486;10.218;2023-11-22T11:12:48;4.20;99.90
17845;DHT22;9047;53.486;10.218;2023-11-22T11:15:15;4.20;99.90
17845;DHT22;9047;53.486;10.218;2023-11-22T11:17:45;4.30;99.90
17845;DHT22;9047;53.486;10.218;2023-11-22T11:20:18;4.40;99.90
17845;DHT22;9047;53.486;10.218;2023-11-22T11:22:52;4.40;99.90
17845;DHT22;9047;53.486;10.218;2023-11-22T11:25:22;4.40;99.90
17845;DHT22;9047;53.486;10.218;2023-11-22T11:27:56;4.50;99.90
17845;DHT22;9047;53.486;10.218;2023-11-22T11:30:41;4.50;99.90
17845;DHT22;9047;53.486;10.218;2023-11-22T11:33:08;4.60;99.90
17845;DHT22;9047;53.486;10.218;2023-11-22T11:35:41;4.50;99.90
17845;DHT22;9047;53.486;10.218;2023-11-22T11:38:13;4.50;99.90
17845;DHT22;9047;53.486;10.218;2023-11-22T11:40:42;4.40;99.90
17845;DHT22;9047;53.486;10.218;2023-11-22T11:43:10;4.50;99.90
17845;DHT22;9047;53.486;10.218;2023-11-22T11:45:39;4.50;99.90
17845;DHT22;9047;53.486;10.218;2023-11-22T11:48:12;4.50;99.90
17845;DHT22;9047;53.486;10.218;2023-11-22T11:50:41;4.50;99.90
17845;DHT22;9047;53.486;10.218;2023-11-22T11:53:09;4.60;99.90
17845;DHT22;9047;53.486;10.218;2023-11-22T11:55:36;4.60;99.90
17845;DHT22;9047;53.486;10.218;2023-11-22T11:58:07;4.60;99.90
17845;DHT22;9047;53.486;10.218;2023-11-22T12:00:35;4.70;99.90
17845;DHT22;9047;53.486;10.218;2023-11-22T12:03:06;4.80;99.90
17845;DHT22;9047;53.486;10.218;2023-11-22T12:05:35;5.00;99.90
17845;DHT22;9047;53.486;10.218;2023-11-22T12:08:02;5.20;99.90
17845;DHT22;9047;53.486;10.218;2023-11-22T12:10:29;5.20;99.90
17845;DHT22;9047;53.486;10.218;2023-11-22T12:12:57;5.20;99.90
17845;DHT22;9047;53.486;10.218;2023-11-22T12:15:41;5.20;99.90
17845;DHT22;9047;53.486;10.218;2023-11-22T12:18:09;5.20;99.90
17845;DHT22;9047;53.486;10.218;2023-11-22T12:20:38;5.10;99.90
17845;DHT22;9047;53.486;10.218;2023-11-22T12:23:23;5.10;99.90
17845;DHT22;9047;53.486;10.218;2023-11-22T12:25:58;5.10;99.90
17845;DHT22;9047;53.486;10.218;2023-11-22T12:28:28;5.10;99.90
17845;DHT22;9047;53.486;10.218;2023-11-22T12:31:08;5.10;99.90
17845;DHT22;9047;53.486;10.218;2023-11-22T12:33:37;5.10;99.90
17845;DHT22;9047;53.486;10.218;2023-11-22T12:36:08;5.10;99.90
17845;DHT22;9047;53.486;10.218;2023-11-22T12:38:36;5.10;99.90
17845;DHT22;9047;53.486;10.218;2023-11-22T12:41:06;5.00;99.90
17845;DHT22;9047;53.486;10.218;2023-11-22T12:43:33;5.00;99.90
17845;DHT22;9047;53.486;10.218;2023-11-22T12:46:01;5.00;99.90
17845;DHT22;9047;53.486;10.218;2023-11-22T12:48:31;5.00;99.90
17845;DHT22;9047;53.486;10.218;2023-11-22T12:50:59;5.00;99.90
17845;DHT22;9047;53.486;10.218;2023-11-22T12:53:27;5.00;99.90
17845;DHT22;9047;53.486;10.218;2023-11-22T12:55:58;5.00;99.90
17845;DHT22;9047;53.486;10.218;2023-11-22T12:58:33;5.00;99.90
17845;DHT22;9047;53.486;10.218;2023-11-22T13:01:00;5.00;99.90
17845;DHT22;9047;53.486;10.218;2023-11-22T13:03:31;5.00;99.90
17845;DHT22;9047;53.486;10.218;2023-11-22T13:05:58;4.90;99.90
17845;DHT22;9047;53.486;10.218;2023-11-22T13:08:26;4.90;99.90
17845;DHT22;9047;53.486;10.218;2023-11-22T13:10:55;5.00;99.90
17845;DHT22;9047;53.486;10.218;2023-11-22T13:13:23;4.90;99.90
17845;DHT22;9047;53.486;10.218;2023-11-22T13:15:51;4.90;99.90
17845;DHT22;9047;53.486;10.218;2023-11-22T13:18:19;4.90;99.90
17845;DHT22;9047;53.486;10.218;2023-11-22T13:20:48;4.90;99.90
17845;DHT22;9047;53.486;10.218;2023-11-22T13:23:15;4.90;99.90
17845;DHT22;9047;53.486;10.218;2023-11-22T13:25:47;4.90;99.90
17845;DHT22;9047;53.486;10.218;2023-11-22T13:28:14;4.90;99.90
17845;DHT22;9047;53.486;10.218;2023-11-22T13:30:41;4.80;99.90
17845;DHT22;9047;53.486;10.218;2023-11-22T13:33:08;4.80;99.90
17845;DHT22;9047;53.486;10.218;2023-11-22T13:35:36;4.80;99.90
17845;DHT22;9047;53.486;10.218;2023-11-22T13:38:09;4.80;99.90
17845;DHT22;9047;53.486;10.218;2023-11-22T13:40:40;4.80;99.90
17845;DHT22;9047;53.486;10.218;2023-11-22T13:43:11;4.70;99.90
17845;DHT22;9047;53.486;10.218;2023-11-22T13:45:39;4.70;99.90
17845;DHT22;9047;53.486;10.218;2023-11-22T13:48:07;4.70;99.90
17845;DHT22;9047;53.486;10.218;2023-11-22T13:50:36;4.60;99.90
17845;DHT22;9047;53.486;10.218;2023-11-22T13:53:03;4.60;99.90
17845;DHT22;9047;53.486;10.218;2023-11-22T13:55:31;4.60;99.90
17845;DHT22;9047;53.486;10.218;2023-11-22T13:58:00;4.50;99.90
17845;DHT22;9047;53.486;10.218;2023-11-22T14:00:28;4.50;99.90
17845;DHT22;9047;53.486;10.218;2023-11-22T14:02:59;4.50;99.90
17845;DHT22;9047;53.486;10.218;2023-11-22T14:05:32;4.50;99.90
17845;DHT22;9047;53.486;10.218;2023-11-22T14:07:59;4.40;99.90
17845;DHT22;9047;53.486;10.218;2023-11-22T14:10:26;4.40;99.90
17845;DHT22;9047;53.486;10.218;2023-11-22T14:12:55;4.40;99.90
17845;DHT22;9047;53.486;10.218;2023-11-22T14:15:25;4.40;99.90
17845;DHT22;9047;53.486;10.218;2023-11-22T14:17:53;4.30;99.90
17845;DHT22;9047;53.486;10.218;2023-11-22T14:20:20;4.30;99.90
17845;DHT22;9047;53.486;10.218;2023-11-22T14:22:47;4.30;99.90
17845;DHT22;9047;53.486;10.218;2023-11-22T14:25:14;4.20;99.90
17845;DHT22;9047;53.486;10.218;2023-11-22T14:27:42;4.30;99.90
17845;DHT22;9047;53.486;10.218;2023-11-22T14:30:13;4.30;99.90
17845;DHT22;9047;53.486;10.218;2023-11-22T14:32:42;4.30;99.90
17845;DHT22;9047;53.486;10.218;2023-11-22T14:35:09;4.30;99.90
17845;DHT22;9047;53.486;10.218;2023-11-22T14:37:38;4.20;99.90
17845;DHT22;9047;53.486;10.218;2023-11-22T14:40:07;4.10;99.90
17845;DHT22;9047;53.486;10.218;2023-11-22T14:42:39;4.10;99.90
17845;DHT22;9047;53.486;10.218;2023-11-22T14:45:07;4.00;99.90
17845;DHT22;9047;53.486;10.218;2023-11-22T14:47:37;4.00;99.90
17845;DHT22;9047;53.486;10.218;2023-11-22T14:50:07;4.00;99.90
17845;DHT22;9047;53.486;10.218;2023-11-22T14:52:37;4.00;99.90
17845;DHT22;9047;53.486;10.218;2023-11-22T14:55:04;4.00;99.90
17845;DHT22;9047;53.486;10.218;2023-11-22T14:57:35;4.00;99.90
17845;DHT22;9047;53.486;10.218;2023-11-22T15:00:03;4.00;99.90
17845;DHT22;9047;53.486;10.218;2023-11-22T15:02:35;4.00;99.90
17845;DHT22;9047;53.486;10.218;2023-11-22T15:05:05;4.00;99.90
17845;DHT22;9047;53.486;10.218;2023-11-22T15:07:34;3.90;99.90
17845;DHT22;9047;53.486;10.218;2023-11-22T15:10:07;3.90;99.90
17845;DHT22;9047;53.486;10.218;2023-11-22T15:12:35;3.90;99.90
17845;DHT22;9047;53.486;10.218;2023-11-22T15:15:02;3.80;99.90
17845;DHT22;9047;53.486;10.218;2023-11-22T15:17:34;3.80;99.90
17845;DHT22;9047;53.486;10.218;2023-11-22T15:20:03;3.80;99.90
17845;DHT22;9047;53.486;10.218;2023-11-22T15:22:34;3.80;99.90
17845;DHT22;9047;53.486;10.218;2023-11-22T15:25:02;3.80;99.90
17845;DHT22;9047;53.486;10.218;2023-11-22T15:27:31;3.70;99.90
17845;DHT22;9047;53.486;10.218;2023-11-22T15:29:58;3.70;99.90
17845;DHT22;9047;53.486;10.218;2023-11-22T15:32:31;3.70;99.90
17845;DHT22;9047;53.486;10.218;2023-11-22T15:35:00;3.70;99.90
17845;DHT22;9047;53.486;10.218;2023-11-22T15:37:30;3.70;99.90
17845;DHT22;9047;53.486;10.218;2023-11-22T15:39:57;3.70;99.90
17845;DHT22;9047;53.486;10.218;2023-11-22T15:42:25;3.60;99.90
17845;DHT22;9047;53.486;10.218;2023-11-22T15:44:52;3.60;99.90
17845;DHT22;9047;53.486;10.218;2023-11-22T15:47:19;3.60;99.90
17845;DHT22;9047;53.486;10.218;2023-11-22T15:49:45;3.60;99.90